Hutchinson, MN

5:58 PM CST on February 12, 2016 (GMT -0600)
Hutchinson Municipal-Butler

Weather History for KHCD - April, 2013

Change the Weather History Date:

Wednesday, April 10, 2013

  Actual Average Record
Temperature  
Mean Temperature 32 °F -  
Max Temperature 33 °F 53 °F 87 °F (1977)
Min Temperature 30 °F 31 °F 17 °F (1989)
Degree Days  
Heating Degree Days 34    
Moisture  
Dew Point 27 °F    
Average Humidity 84    
Maximum Humidity 96    
Minimum Humidity 64    
Precipitation  
Precipitation 0.09 in - - ()
Sea Level Pressure  
Sea Level Pressure 30.03 in    
Wind  
Wind Speed 15 mph (NE)    
Max Wind Speed 23 mph    
Max Gust Speed 37 mph    
Visibility 7 miles    
Events Rain , Snow    
Averages and records for this station are not official NWS values.
T = Trace of Precipitation, MM = Missing Value Source: NWS Daily Summary

Daily Weather History Graph

Daily Weather History Graph

Search for Another Location

Airport or City:

Trip Planner

Search our weather history database for the weather conditions in past years. The results will help you decide how hot, cold, wet, or windy it might be!

Date:

Astronomy

Apr. 10, 2013 Rise Set
Actual Time 6:41 AM CDT 7:56 PM CDT
Civil Twilight 6:11 AM CDT 8:27 PM CDT
Nautical Twilight 5:34 AM CDT 9:03 PM CDT
Astronomical Twilight 4:56 AM CDT 9:42 PM CDT
Moon 6:36 AM CDT (4/10) 8:36 PM CDT (4/10)
Length of Visible Light 14h 15m
Length of Day
13h 15m
New Moon, 0% of the Moon is Illuminated
Apr 10
New Moon
Apr 18
First Quarter
Apr 25
Full
May 2
Last Quarter
May 9
New

Hourly Weather History & Observations

Time (CDT) Temp. Windchill Dew Point Humidity Pressure Visibility Wind Dir Wind Speed Gust Speed Precip Events Conditions
12:14 AM 31.1 °F 20.5 °F 29.7 °F 94% 30.17 in 3.0 mi NE 15.0 mph - N/A Snow Light Snow
12:34 AM 31.1 °F 20.9 °F 29.3 °F 93% 30.17 in 2.5 mi NE 13.8 mph - N/A Snow Light Snow
12:52 AM 30.9 °F 20.2 °F 29.3 °F 94% 30.17 in 1.8 mi NE 15.0 mph 18.4 mph N/A Snow Light Snow
1:14 AM 30.6 °F 19.0 °F 29.3 °F 95% 30.13 in 1.5 mi NE 17.3 mph - N/A Snow Light Snow
1:34 AM 30.0 °F 16.6 °F 29.1 °F 96% 30.04 in 1.5 mi ENE 23.0 mph 36.8 mph N/A Snow Light Snow
1:54 AM 30.0 °F 19.1 °F 28.4 °F 94% 30.11 in 7.0 mi ENE 15.0 mph 27.6 mph N/A   Mostly Cloudy
2:14 AM 30.0 °F 20.0 °F 28.2 °F 93% 30.12 in 10.0 mi ENE 12.7 mph - N/A   Overcast
2:34 AM 30.2 °F 20.8 °F 28.0 °F 92% 30.11 in 10.0 mi NE 11.5 mph - N/A   Overcast
2:54 AM 30.2 °F 20.2 °F 27.5 °F 90% 30.11 in 10.0 mi ENE 12.7 mph 16.1 mph N/A   Overcast
3:10 AM 30.2 °F 21.9 °F 27.7 °F 90% 30.11 in 10.0 mi NE 9.2 mph - N/A   Overcast
3:34 AM 30.7 °F 21.4 °F 27.3 °F 87% 30.12 in 10.0 mi NE 11.5 mph - N/A   Overcast
7:02 AM 31.6 °F 22.1 °F 24.1 °F 74% 30.08 in 10.0 mi NE 12.7 mph - N/A   Overcast
7:14 AM 31.5 °F 21.4 °F 24.1 °F 74% 30.08 in 10.0 mi NE 13.8 mph - N/A   Overcast
7:33 AM 31.5 °F 21.8 °F 24.1 °F 74% 30.06 in 10.0 mi NE 12.7 mph - N/A   Overcast
7:54 AM 31.5 °F 19.8 °F 23.7 °F 73% 30.05 in 10.0 mi NE 18.4 mph 23.0 mph N/A   Overcast
8:14 AM 31.6 °F 21.2 °F 23.2 °F 71% 30.08 in 10.0 mi NE 15.0 mph - N/A   Overcast
8:34 AM 31.8 °F 21.0 °F 22.8 °F 69% 30.07 in 10.0 mi NE 16.1 mph - N/A   Overcast
8:54 AM 32.0 °F 20.8 °F 23.0 °F 69% 30.07 in 10.0 mi NE 17.3 mph - N/A   Overcast
9:14 AM 32.0 °F 20.1 °F 22.6 °F 68% 30.04 in 10.0 mi NE 19.6 mph 25.3 mph N/A   Overcast
9:33 AM 32.0 °F 21.2 °F 22.5 °F 68% 30.05 in 10.0 mi NE 16.1 mph 25.3 mph N/A   Overcast
9:53 AM 32.2 °F 20.0 °F 21.9 °F 66% 30.05 in 10.0 mi NE 20.7 mph 26.5 mph N/A   Overcast
10:01 AM 32.2 °F 20.0 °F 22.1 °F 66% 30.05 in 10.0 mi NE 20.7 mph 26.5 mph N/A   Overcast
10:25 AM 32.0 °F 21.6 °F 21.2 °F 64% 30.07 in 10.0 mi ENE 15.0 mph 26.5 mph N/A   Overcast
10:45 AM 32.0 °F 21.2 °F 21.2 °F 64% 30.06 in 10.0 mi ENE 16.1 mph 26.5 mph N/A   Overcast
11:05 AM 32.0 °F 20.8 °F 21.2 °F 64% 30.07 in 10.0 mi ENE 17.3 mph 23.0 mph N/A   Overcast
11:25 AM 32.0 °F 22.1 °F 23.0 °F 69% 30.07 in 10.0 mi ENE 13.8 mph 20.7 mph N/A   Overcast
11:45 AM 32.0 °F 21.2 °F 23.0 °F 69% 30.05 in 10.0 mi NE 16.1 mph - N/A   Overcast
12:05 PM 33.8 °F 23.5 °F 23.0 °F 65% 30.05 in 10.0 mi NE 16.1 mph 19.6 mph N/A   Overcast
12:25 PM 33.8 °F 25.8 °F 23.0 °F 65% 30.07 in 10.0 mi NE 10.4 mph - N/A   Overcast
12:41 PM 33.8 °F 25.8 °F 23.0 °F 65% 30.07 in 10.0 mi NE 10.4 mph - N/A   Overcast
12:54 PM 33.3 °F 24.6 °F 23.9 °F 69% 30.07 in 10.0 mi ENE 11.5 mph 19.6 mph N/A   Overcast
1:13 PM 32.9 °F 22.8 °F 25.9 °F 75% 30.08 in 3.0 mi ENE 15.0 mph 21.9 mph N/A   Haze
1:34 PM 32.2 °F 23.8 °F 28.0 °F 85% 30.09 in 2.5 mi NE 10.4 mph 18.4 mph 0.01 in   Light Drizzle
1:54 PM 32.0 °F 23.0 °F 29.3 °F 90% 30.08 in 2.0 mi NE 11.5 mph 17.3 mph 0.02 in   Light Drizzle
2:13 PM 32.0 °F 23.0 °F 29.8 °F 92% 30.09 in 2.0 mi NE 11.5 mph - 0.02 in   Light Drizzle
2:34 PM 32.0 °F 23.6 °F 30.9 °F 96% 30.08 in 1.8 mi ENE 10.4 mph - 0.03 in   Light Drizzle
2:53 PM 32.0 °F 23.0 °F 30.7 °F 95% 30.07 in 2.0 mi ENE 11.5 mph - 0.03 in   Light Drizzle
3:14 PM 32.0 °F 22.5 °F 30.7 °F 95% 30.05 in 2.0 mi ENE 12.7 mph - N/A Rain Light Rain
3:33 PM 32.0 °F 23.6 °F 30.7 °F 95% 30.04 in 2.0 mi ENE 10.4 mph 16.1 mph 0.01 in Snow Light Snow
3:54 PM 32.0 °F 23.0 °F 30.7 °F 95% 30.04 in 1.5 mi ENE 11.5 mph 16.1 mph 0.01 in Snow Light Snow
4:14 PM 32.0 °F 23.0 °F 30.7 °F 95% 30.02 in 1.2 mi NE 11.5 mph 18.4 mph 0.01 in Snow Light Snow
4:34 PM 32.5 °F 23.7 °F 30.2 °F 91% 30.03 in 2.5 mi ENE 11.5 mph 16.1 mph 0.01 in Snow Light Snow
4:53 PM 32.9 °F 23.2 °F 29.7 °F 88% 30.02 in 2.5 mi NE 13.8 mph 18.4 mph 0.02 in Snow Light Snow
5:14 PM 33.1 °F 23.0 °F 29.5 °F 87% 30.01 in 2.0 mi NE 15.0 mph - N/A Snow Light Snow
5:19 PM 33.1 °F 23.0 °F 29.8 °F 88% 30.00 in 1.8 mi NE 15.0 mph 18.4 mph N/A Snow Light Snow
5:54 PM 33.3 °F 24.1 °F 29.7 °F 87% 30.00 in 5.0 mi NE 12.7 mph 19.6 mph 0.01 in Snow Light Snow
6:14 PM 33.8 °F 24.8 °F 29.1 °F 83% 29.98 in 10.0 mi NE 12.7 mph - N/A   Overcast
6:34 PM 33.8 °F 23.9 °F 29.1 °F 83% 30.00 in 7.0 mi NE 15.0 mph 19.6 mph N/A Snow Light Snow
6:54 PM 32.9 °F 22.0 °F 29.3 °F 87% 29.99 in 10.0 mi NNE 17.3 mph - N/A   Overcast
7:14 PM 32.2 °F 20.4 °F 30.0 °F 92% 29.96 in 10.0 mi NE 19.6 mph 25.3 mph N/A   Overcast
7:34 PM 32.0 °F 20.1 °F 30.0 °F 92% 29.94 in 10.0 mi NE 19.6 mph 25.3 mph N/A   Overcast
7:53 PM 32.0 °F 20.5 °F 30.2 °F 93% 29.94 in 10.0 mi NE 18.4 mph - N/A   Overcast
8:14 PM 32.0 °F 19.5 °F 30.2 °F 93% 29.89 in 10.0 mi NE 21.9 mph 31.1 mph N/A   Overcast
8:33 PM 32.2 °F 20.7 °F 30.0 °F 92% 29.90 in 10.0 mi NE 18.4 mph 27.6 mph N/A   Overcast
8:54 PM 32.5 °F 22.7 °F 29.8 °F 90% 29.92 in 10.0 mi NE 13.8 mph 20.7 mph N/A   Overcast
9:13 PM 32.5 °F 24.2 °F 29.7 °F 89% 29.94 in 10.0 mi NE 10.4 mph - N/A   Overcast
9:34 PM 32.5 °F 23.2 °F 29.8 °F 90% 29.94 in 10.0 mi NE 12.7 mph - N/A   Overcast
9:53 PM 32.7 °F 23.9 °F 29.8 °F 89% 29.94 in 5.0 mi NE 11.5 mph - N/A Rain Rain
10:14 PM 32.2 °F 24.4 °F 30.2 °F 92% 29.94 in 4.0 mi ENE 9.2 mph - N/A Rain Light Rain
10:34 PM 32.0 °F 23.6 °F 30.4 °F 94% 29.93 in 3.0 mi NE 10.4 mph - N/A Snow Light Snow
10:53 PM 32.0 °F 22.5 °F 29.5 °F 90% 29.94 in 7.0 mi NE 12.7 mph 18.4 mph N/A Rain Rain
11:14 PM 31.8 °F 21.0 °F 27.7 °F 85% 29.92 in 7.0 mi NE 16.1 mph 21.9 mph N/A Rain Light Freezing Rain
11:34 PM 31.5 °F 20.1 °F 27.9 °F 87% 29.91 in 10.0 mi NE 17.3 mph - N/A   Light Freezing Rain
11:54 PM 31.1 °F 20.1 °F 28.0 °F 88% 29.89 in 10.0 mi NE 16.1 mph 23.0 mph N/A   Light Freezing Rain